Time;durP1;ratioP1;P1;durP2;ratioP2;P2;SDS_P1;SDS_P2;PMS_P1;PMS_P2;Temp;Humidity;BMP_temperature;BMP_pressure;BME280_temperature;BME280_humidity;BME280_pressure;Samples;Min_cycle;Max_cycle;Signal;HPM_P1;HPM_P2
2022/03/24 00:00:03;;;;;;;19.75;15.40;;;;;;;;;;511356;29;1398;-75
2022/03/24 00:00:18;;;;;;;21.65;15.50;;;;;;;;;;511005;29;1126;-75
2022/03/24 00:00:37;;;;;;;22.17;15.30;;;;;;;;;;510289;29;892;-75
2022/03/24 00:00:53;;;;;;;20.15;15.10;;;;;;;;;;507498;29;1427;-75
2022/03/24 00:01:08;;;;;;;20.90;15.57;;;;;;;;;;507088;29;822;-75
2022/03/24 00:01:24;;;;;;;21.00;15.73;;;;;;;;;;507331;29;747;-75
2022/03/24 00:01:39;;;;;;;21.52;15.55;;;;;;;;;;508696;29;731;-75
2022/03/24 00:01:55;;;;;;;21.50;15.40;;;;;;;;;;510408;29;936;-75
2022/03/24 00:02:10;;;;;;;22.40;15.35;;;;;;;;;;509481;29;1390;-75
2022/03/24 00:02:25;;;;;;;21.83;15.27;;;;;;;;;;509145;29;1139;-74
2022/03/24 00:02:41;;;;;;;21.87;15.40;;;;;;;;;;507956;29;1232;-75
2022/03/24 00:02:56;;;;;;;21.90;15.63;;;;;;;;;;509288;29;1264;-75
2022/03/24 00:03:11;;;;;;;21.53;15.77;;;;;;;;;;509003;29;964;-75
2022/03/24 00:03:27;;;;;;;22.33;15.80;;;;;;;;;;508842;29;1422;-75
2022/03/24 00:03:42;;;;;;;22.00;15.55;;;;;;;;;;509295;29;781;-75
2022/03/24 00:03:57;;;;;;;21.70;15.67;;;;;;;;;;509112;29;1047;-75
2022/03/24 00:04:12;;;;;;;23.27;15.80;;;;;;;;;;509665;29;754;-75
2022/03/24 00:04:28;;;;;;;23.13;15.50;;;;;;;;;;508259;29;1301;-75
2022/03/24 00:04:43;;;;;;;21.43;15.37;;;;;;;;;;509471;29;1285;-75
2022/03/24 00:04:58;;;;;;;21.50;15.50;;;;;;;;;;511408;29;995;-75
2022/03/24 00:05:13;;;;;;;20.90;15.13;;;;;;;;;;510379;29;916;-75
2022/03/24 00:05:30;;;;;;;23.83;15.10;;;;;;;;;;509725;29;1356;-75
2022/03/24 00:05:45;;;;;;;24.17;15.73;;;;;;;;;;509788;29;1379;-75
2022/03/24 00:06:00;;;;;;;22.03;15.73;;;;;;;;;;510023;29;846;-75
2022/03/24 00:06:15;;;;;;;23.00;15.70;;;;;;;;;;509799;29;1183;-75
2022/03/24 00:06:31;;;;;;;21.70;15.77;;;;;;;;;;509858;29;1166;-75
2022/03/24 00:06:46;;;;;;;20.73;15.67;;;;;;;;;;511250;29;1039;-74
2022/03/24 00:07:01;;;;;;;23.00;15.67;;;;;;;;;;511539;29;727;-75
2022/03/24 00:07:17;;;;;;;24.10;15.90;;;;;;;;;;509239;29;1375;-75
2022/03/24 00:07:32;;;;;;;22.70;15.60;;;;;;;;;;509692;29;952;-74
2022/03/24 00:07:47;;;;;;;23.10;15.57;;;;;;;;;;511731;29;1231;-75
2022/03/24 00:08:03;;;;;;;22.88;15.75;;;;;;;;;;511850;29;726;-75
2022/03/24 00:08:18;;;;;;;21.27;15.40;;;;;;;;;;511506;29;1528;-75
2022/03/24 00:08:34;;;;;;;20.95;15.35;;;;;;;;;;509915;29;1517;-75
2022/03/24 00:08:49;;;;;;;21.07;15.37;;;;;;;;;;509730;29;1460;-75
2022/03/24 00:09:04;;;;;;;21.77;15.43;;;;;;;;;;511521;29;1027;-75
2022/03/24 00:09:19;;;;;;;22.20;15.32;;;;;;;;;;511477;29;936;-75
2022/03/24 00:09:35;;;;;;;22.27;15.23;;;;;;;;;;509453;29;1327;-75
2022/03/24 00:09:50;;;;;;;22.27;15.30;;;;;;;;;;509512;29;770;-75
2022/03/24 00:10:06;;;;;;;20.37;14.93;;;;;;;;;;509327;29;972;-74
2022/03/24 00:10:21;;;;;;;19.55;15.18;;;;;;;;;;510621;29;916;-74
2022/03/24 00:10:36;;;;;;;20.33;15.38;;;;;;;;;;510683;29;750;-75
2022/03/24 00:10:52;;;;;;;20.53;15.27;;;;;;;;;;511610;29;1249;-75
2022/03/24 00:11:08;;;;;;;22.58;15.85;;;;;;;;;;512046;29;581;-75
2022/03/24 00:11:23;;;;;;;22.67;15.77;;;;;;;;;;511880;29;765;-75
2022/03/24 00:11:40;;;;;;;25.00;15.20;;;;;;;;;;511213;29;1202;-75
2022/03/24 00:11:55;;;;;;;23.50;15.23;;;;;;;;;;509454;29;1309;-75
2022/03/24 00:12:11;;;;;;;20.10;15.30;;;;;;;;;;509684;29;734;-74
2022/03/24 00:12:27;;;;;;;20.20;15.03;;;;;;;;;;509179;29;1480;-75
2022/03/24 00:12:43;;;;;;;20.98;15.38;;;;;;;;;;507738;29;1297;-75
2022/03/24 00:12:58;;;;;;;21.83;15.20;;;;;;;;;;507856;29;806;-75
2022/03/24 00:13:14;;;;;;;20.17;14.65;;;;;;;;;;507892;29;797;-74
2022/03/24 00:13:29;;;;;;;21.57;15.03;;;;;;;;;;508509;29;1545;-74
2022/03/24 00:13:44;;;;;;;23.92;15.25;;;;;;;;;;510386;29;940;-74
2022/03/24 00:14:00;;;;;;;22.80;15.43;;;;;;;;;;510815;29;1194;-75
2022/03/24 00:14:18;;;;;;;20.80;15.80;;;;;;;;;;509939;29;1253;-75
2022/03/24 00:14:33;;;;;;;23.05;16.10;;;;;;;;;;508079;29;1234;-75
2022/03/24 00:14:48;;;;;;;24.00;15.88;;;;;;;;;;509131;29;1907;-75
2022/03/24 00:15:05;;;;;;;21.77;15.37;;;;;;;;;;505741;29;1108;-75
2022/03/24 00:15:20;;;;;;;20.17;15.00;;;;;;;;;;504779;29;1457;-75
2022/03/24 00:15:36;;;;;;;21.00;15.10;;;;;;;;;;506780;29;1346;-75
2022/03/24 00:15:51;;;;;;;21.20;15.30;;;;;;;;;;506833;29;1330;-75
2022/03/24 00:16:07;;;;;;;20.70;15.07;;;;;;;;;;508551;29;755;-75
2022/03/24 00:16:23;;;;;;;21.13;15.32;;;;;;;;;;510314;29;770;-75
2022/03/24 00:16:39;;;;;;;21.40;15.68;;;;;;;;;;510049;29;764;-75
2022/03/24 00:16:54;;;;;;;21.90;15.50;;;;;;;;;;510632;29;924;-75
2022/03/24 00:17:10;;;;;;;23.67;15.50;;;;;;;;;;511518;29;750;-74
2022/03/24 00:17:25;;;;;;;23.52;15.20;;;;;;;;;;509126;29;1195;-74
2022/03/24 00:17:40;;;;;;;22.63;15.07;;;;;;;;;;509052;29;1422;-75
2022/03/24 00:17:56;;;;;;;23.10;15.23;;;;;;;;;;509209;29;1510;-75
2022/03/24 00:18:12;;;;;;;22.77;15.13;;;;;;;;;;511802;29;767;-75
2022/03/24 00:18:30;;;;;;;22.02;15.10;;;;;;;;;;510810;28;1544;-74
2022/03/24 00:18:46;;;;;;;21.40;15.10;;;;;;;;;;510116;29;1336;-75
2022/03/24 00:19:01;;;;;;;22.30;15.13;;;;;;;;;;508052;29;1238;-75
2022/03/24 00:19:17;;;;;;;21.13;15.10;;;;;;;;;;506264;29;1274;-75
2022/03/24 00:19:33;;;;;;;21.73;14.80;;;;;;;;;;508334;29;872;-75
2022/03/24 00:19:48;;;;;;;23.80;15.43;;;;;;;;;;509392;29;782;-75
2022/03/24 00:20:05;;;;;;;23.30;15.50;;;;;;;;;;509303;29;1428;-75
2022/03/24 00:20:20;;;;;;;23.55;15.52;;;;;;;;;;509168;29;1459;-75
2022/03/24 00:20:36;;;;;;;23.20;15.87;;;;;;;;;;509699;29;1253;-75
2022/03/24 00:20:51;;;;;;;20.98;15.18;;;;;;;;;;512270;28;781;-75
2022/03/24 00:21:07;;;;;;;19.60;15.00;;;;;;;;;;512142;28;1318;-74
2022/03/24 00:21:24;;;;;;;20.08;15.32;;;;;;;;;;512906;28;951;-75
2022/03/24 00:21:39;;;;;;;21.52;15.35;;;;;;;;;;511460;28;888;-75
2022/03/24 00:21:54;;;;;;;21.33;15.30;;;;;;;;;;511453;29;888;-74
2022/03/24 00:22:10;;;;;;;21.08;15.35;;;;;;;;;;509699;29;1308;-75
2022/03/24 00:22:26;;;;;;;21.07;15.53;;;;;;;;;;511327;29;816;-74
2022/03/24 00:22:41;;;;;;;20.63;15.00;;;;;;;;;;511040;29;955;-75
2022/03/24 00:22:57;;;;;;;21.40;15.25;;;;;;;;;;512343;28;766;-75
2022/03/24 00:23:12;;;;;;;22.57;15.80;;;;;;;;;;513991;28;939;-75
2022/03/24 00:23:28;;;;;;;23.13;15.47;;;;;;;;;;510604;29;1579;-75
2022/03/24 00:23:44;;;;;;;22.67;14.98;;;;;;;;;;508675;29;1194;-75
2022/03/24 00:23:59;;;;;;;22.75;15.43;;;;;;;;;;509387;29;857;-74
2022/03/24 00:24:14;;;;;;;22.80;15.87;;;;;;;;;;509730;29;1502;-75
2022/03/24 00:24:30;;;;;;;22.83;16.00;;;;;;;;;;506596;29;1333;-75
2022/03/24 00:24:45;;;;;;;22.00;15.80;;;;;;;;;;506825;29;1480;-74
2022/03/24 00:25:00;;;;;;;21.63;15.50;;;;;;;;;;507379;29;1432;-74
2022/03/24 00:25:16;;;;;;;22.08;15.68;;;;;;;;;;507578;29;1201;-75
2022/03/24 00:25:31;;;;;;;22.47;15.63;;;;;;;;;;507157;29;1227;-75
2022/03/24 00:25:46;;;;;;;22.90;15.53;;;;;;;;;;506082;29;1277;-75
2022/03/24 00:26:02;;;;;;;22.47;15.57;;;;;;;;;;506064;29;739;-75
2022/03/24 00:26:17;;;;;;;20.30;15.23;;;;;;;;;;507792;29;825;-75
2022/03/24 00:26:33;;;;;;;20.25;15.02;;;;;;;;;;509605;29;870;-75
2022/03/24 00:26:48;;;;;;;22.02;15.68;;;;;;;;;;510029;29;806;-75
2022/03/24 00:27:04;;;;;;;22.93;16.10;;;;;;;;;;509980;29;961;-75
2022/03/24 00:27:19;;;;;;;23.27;15.53;;;;;;;;;;509575;29;1234;-75
2022/03/24 00:27:35;;;;;;;23.17;15.98;;;;;;;;;;510334;29;961;-75
2022/03/24 00:27:50;;;;;;;24.53;16.30;;;;;;;;;;512030;29;975;-75
2022/03/24 00:28:06;;;;;;;24.63;16.00;;;;;;;;;;512550;28;921;-75
2022/03/24 00:28:22;;;;;;;21.30;15.35;;;;;;;;;;510894;29;1548;-75
2022/03/24 00:28:37;;;;;;;20.58;15.18;;;;;;;;;;510661;29;832;-75
2022/03/24 00:28:52;;;;;;;22.70;16.30;;;;;;;;;;508102;29;1316;-75
2022/03/24 00:29:09;;;;;;;24.48;16.80;;;;;;;;;;508436;29;830;-75
2022/03/24 00:29:24;;;;;;;22.77;16.08;;;;;;;;;;508006;29;1704;-75
2022/03/24 00:29:39;;;;;;;20.23;15.30;;;;;;;;;;506180;29;1293;-75
2022/03/24 00:29:55;;;;;;;21.00;15.20;;;;;;;;;;506052;29;1293;-75
2022/03/24 00:30:12;;;;;;;23.30;15.47;;;;;;;;;;505797;29;964;-75
2022/03/24 00:30:27;;;;;;;23.38;16.05;;;;;;;;;;507727;29;1263;-74
2022/03/24 00:30:43;;;;;;;23.07;16.10;;;;;;;;;;506175;29;1302;-75
2022/03/24 00:30:58;;;;;;;23.40;15.53;;;;;;;;;;507552;29;767;-75
2022/03/24 00:31:14;;;;;;;22.75;15.50;;;;;;;;;;508288;29;751;-75
2022/03/24 00:31:29;;;;;;;21.77;15.43;;;;;;;;;;507814;29;1214;-75
2022/03/24 00:31:46;;;;;;;20.47;15.70;;;;;;;;;;508606;29;1083;-75
2022/03/24 00:32:01;;;;;;;20.85;16.58;;;;;;;;;;509855;29;1359;-75
2022/03/24 00:32:16;;;;;;;20.87;16.73;;;;;;;;;;507609;29;1230;-75
2022/03/24 00:32:32;;;;;;;20.97;16.07;;;;;;;;;;510072;29;824;-75
2022/03/24 00:32:47;;;;;;;20.55;15.23;;;;;;;;;;511459;29;1439;-75
2022/03/24 00:33:03;;;;;;;20.43;15.40;;;;;;;;;;509688;29;1555;-74
2022/03/24 00:33:18;;;;;;;20.77;15.48;;;;;;;;;;509725;29;1360;-75
2022/03/24 00:33:33;;;;;;;20.77;15.27;;;;;;;;;;509192;29;1476;-75
2022/03/24 00:33:48;;;;;;;23.90;17.73;;;;;;;;;;509995;29;779;-75
2022/03/24 00:34:05;;;;;;;28.03;20.40;;;;;;;;;;511519;29;813;-75
2022/03/24 00:34:20;;;;;;;30.60;22.08;;;;;;;;;;509623;29;1423;-75
2022/03/24 00:34:36;;;;;;;33.30;24.10;;;;;;;;;;509314;29;889;-75
2022/03/24 00:34:51;;;;;;;27.33;20.50;;;;;;;;;;508195;29;1972;-75
2022/03/24 00:35:08;;;;;;;22.93;16.43;;;;;;;;;;509750;29;798;-75
2022/03/24 00:35:24;;;;;;;24.77;15.70;;;;;;;;;;510364;29;739;-75
2022/03/24 00:35:39;;;;;;;25.20;15.88;;;;;;;;;;511920;29;735;-75
2022/03/24 00:35:56;;;;;;;23.73;15.90;;;;;;;;;;511956;29;826;-75
2022/03/24 00:36:14;;;;;;;23.35;14.88;;;;;;;;;;512498;28;801;-75
2022/03/24 00:36:29;;;;;;;20.98;15.48;;;;;;;;;;511436;29;1393;-75
2022/03/24 00:36:45;;;;;;;22.42;15.88;;;;;;;;;;511235;29;769;-75
2022/03/24 00:37:02;;;;;;;22.10;15.37;;;;;;;;;;509438;29;1286;-75
2022/03/24 00:37:18;;;;;;;20.98;15.88;;;;;;;;;;509587;29;1432;-75
2022/03/24 00:37:33;;;;;;;21.10;16.47;;;;;;;;;;509828;29;816;-75
2022/03/24 00:37:49;;;;;;;22.70;16.63;;;;;;;;;;509697;29;1226;-75
2022/03/24 00:38:07;;;;;;;23.17;16.33;;;;;;;;;;509774;29;746;-75
2022/03/24 00:38:23;;;;;;;21.88;16.27;;;;;;;;;;509413;29;1767;-75
2022/03/24 00:38:38;;;;;;;22.00;16.13;;;;;;;;;;510459;29;775;-75
2022/03/24 00:38:55;;;;;;;22.67;16.08;;;;;;;;;;512285;28;778;-74
2022/03/24 00:39:10;;;;;;;22.65;16.25;;;;;;;;;;509520;29;1305;-75
2022/03/24 00:39:26;;;;;;;22.00;16.33;;;;;;;;;;507691;29;1290;-75
2022/03/24 00:39:41;;;;;;;21.90;16.20;;;;;;;;;;511347;29;849;-75
2022/03/24 00:40:00;;;;;;;22.92;16.17;;;;;;;;;;511543;29;1032;-75
2022/03/24 00:40:16;;;;;;;23.02;15.50;;;;;;;;;;510789;29;793;-75
2022/03/24 00:40:32;;;;;;;22.80;15.23;;;;;;;;;;510572;29;802;-74
2022/03/24 00:40:48;;;;;;;21.55;15.30;;;;;;;;;;511595;29;978;-74
2022/03/24 00:41:03;;;;;;;21.93;16.47;;;;;;;;;;511570;29;1314;-75
2022/03/24 00:41:19;;;;;;;24.17;18.15;;;;;;;;;;511866;29;928;-75
2022/03/24 00:41:35;;;;;;;26.08;18.20;;;;;;;;;;509745;29;1528;-75
2022/03/24 00:41:50;;;;;;;25.73;18.70;;;;;;;;;;510892;29;755;-75
2022/03/24 00:42:10;;;;;;;24.63;18.73;;;;;;;;;;511670;29;810;-75
2022/03/24 00:42:25;;;;;;;23.42;18.55;;;;;;;;;;511379;29;868;-75
2022/03/24 00:42:41;;;;;;;24.95;18.90;;;;;;;;;;509468;29;1295;-75
2022/03/24 00:42:57;;;;;;;23.90;18.37;;;;;;;;;;509560;29;733;-75
2022/03/24 00:43:13;;;;;;;21.50;17.45;;;;;;;;;;507779;29;1418;-75
2022/03/24 00:43:29;;;;;;;21.93;17.07;;;;;;;;;;508881;29;1493;-74
2022/03/24 00:43:45;;;;;;;23.25;16.20;;;;;;;;;;510520;29;873;-75
2022/03/24 00:44:02;;;;;;;22.03;15.37;;;;;;;;;;509389;29;774;-75
2022/03/24 00:44:21;;;;;;;22.33;17.40;;;;;;;;;;509841;29;861;-75
2022/03/24 00:44:36;;;;;;;22.98;17.83;;;;;;;;;;510783;29;1001;-75
2022/03/24 00:44:51;;;;;;;22.52;17.63;;;;;;;;;;511652;28;1137;-75
2022/03/24 00:45:10;;;;;;;23.60;18.60;;;;;;;;;;511089;29;1412;-75
2022/03/24 00:45:26;;;;;;;23.75;17.77;;;;;;;;;;511140;29;1293;-75
2022/03/24 00:45:41;;;;;;;23.10;17.45;;;;;;;;;;511684;29;827;-75
2022/03/24 00:45:57;;;;;;;23.20;17.70;;;;;;;;;;511940;29;884;-74
2022/03/24 00:46:12;;;;;;;22.67;16.08;;;;;;;;;;511845;29;813;-75
2022/03/24 00:46:28;;;;;;;21.40;15.27;;;;;;;;;;511886;29;939;-75
2022/03/24 00:46:43;;;;;;;20.98;15.40;;;;;;;;;;511836;29;809;-75
2022/03/24 00:46:59;;;;;;;20.97;14.93;;;;;;;;;;511318;29;770;-75
2022/03/24 00:47:14;;;;;;;22.03;15.00;;;;;;;;;;511872;29;726;-75
2022/03/24 00:47:30;;;;;;;21.83;15.45;;;;;;;;;;511612;29;1265;-74
2022/03/24 00:47:45;;;;;;;21.35;15.27;;;;;;;;;;512403;28;944;-75
2022/03/24 00:48:00;;;;;;;21.83;15.40;;;;;;;;;;511329;29;1209;-74
2022/03/24 00:48:16;;;;;;;21.20;15.20;;;;;;;;;;509687;29;1131;-74
2022/03/24 00:48:31;;;;;;;20.30;15.07;;;;;;;;;;508992;29;1576;-74
2022/03/24 00:48:47;;;;;;;22.07;15.70;;;;;;;;;;509781;29;770;-74
2022/03/24 00:49:03;;;;;;;21.85;15.82;;;;;;;;;;509161;29;983;-75
2022/03/24 00:49:18;;;;;;;21.17;16.23;;;;;;;;;;507694;29;1359;-75
2022/03/24 00:49:33;;;;;;;21.90;16.67;;;;;;;;;;509649;29;759;-75
2022/03/24 00:49:49;;;;;;;21.57;16.23;;;;;;;;;;509958;29;785;-75
2022/03/24 00:50:05;;;;;;;21.42;15.75;;;;;;;;;;509977;29;1435;-75
2022/03/24 00:50:20;;;;;;;21.23;15.88;;;;;;;;;;511036;29;1273;-75
2022/03/24 00:50:36;;;;;;;22.03;15.73;;;;;;;;;;510739;29;715;-75
2022/03/24 00:50:52;;;;;;;21.10;15.00;;;;;;;;;;508004;29;1298;-74
2022/03/24 00:51:08;;;;;;;19.02;14.82;;;;;;;;;;509267;29;1071;-75
2022/03/24 00:51:23;;;;;;;20.45;15.30;;;;;;;;;;511901;29;782;-75
2022/03/24 00:51:39;;;;;;;21.57;15.53;;;;;;;;;;511799;29;727;-75
2022/03/24 00:51:54;;;;;;;21.92;15.68;;;;;;;;;;511392;29;1181;-75
2022/03/24 00:52:11;;;;;;;22.33;15.70;;;;;;;;;;511821;29;813;-75
2022/03/24 00:52:26;;;;;;;20.38;15.35;;;;;;;;;;509794;29;1793;-75
2022/03/24 00:52:42;;;;;;;20.90;15.57;;;;;;;;;;509515;29;1456;-74
2022/03/24 00:52:58;;;;;;;22.73;16.58;;;;;;;;;;511153;29;1034;-75
2022/03/24 00:53:13;;;;;;;22.25;16.80;;;;;;;;;;509286;29;1505;-75
2022/03/24 00:53:29;;;;;;;20.97;16.53;;;;;;;;;;508931;29;1457;-74
2022/03/24 00:53:46;;;;;;;22.10;16.23;;;;;;;;;;508353;29;1474;-75
2022/03/24 00:54:01;;;;;;;22.92;16.00;;;;;;;;;;509379;29;1380;-75
2022/03/24 00:54:18;;;;;;;21.07;15.93;;;;;;;;;;507292;29;1334;-75
2022/03/24 00:54:34;;;;;;;19.52;15.63;;;;;;;;;;507248;29;814;-75
2022/03/24 00:54:49;;;;;;;22.98;15.82;;;;;;;;;;507701;29;1953;-75
2022/03/24 00:55:05;;;;;;;23.70;16.10;;;;;;;;;;508155;29;1178;-75
2022/03/24 00:55:20;;;;;;;21.20;15.98;;;;;;;;;;509150;29;707;-75
2022/03/24 00:55:36;;;;;;;21.50;15.95;;;;;;;;;;508932;29;778;-75
2022/03/24 00:55:51;;;;;;;21.77;16.00;;;;;;;;;;510374;28;861;-75
2022/03/24 00:56:06;;;;;;;21.38;15.57;;;;;;;;;;514036;28;895;-75
2022/03/24 00:56:23;;;;;;;21.70;15.73;;;;;;;;;;511595;29;1292;-75
2022/03/24 00:56:39;;;;;;;22.38;16.25;;;;;;;;;;511566;29;806;-75
2022/03/24 00:56:54;;;;;;;21.57;15.87;;;;;;;;;;511381;29;1177;-75
2022/03/24 00:57:10;;;;;;;23.83;16.13;;;;;;;;;;511856;28;759;-75
2022/03/24 00:57:25;;;;;;;25.17;16.27;;;;;;;;;;511259;29;734;-75
2022/03/24 00:57:42;;;;;;;23.08;15.68;;;;;;;;;;508152;29;1195;-75
2022/03/24 00:57:57;;;;;;;24.02;15.50;;;;;;;;;;507831;29;927;-75
2022/03/24 00:58:13;;;;;;;25.20;15.30;;;;;;;;;;508290;29;1489;-75
2022/03/24 00:58:29;;;;;;;23.40;15.27;;;;;;;;;;510412;29;1422;-75
2022/03/24 00:58:44;;;;;;;21.83;15.52;;;;;;;;;;509010;29;1269;-75
2022/03/24 00:59:00;;;;;;;21.97;15.97;;;;;;;;;;511137;29;798;-75
2022/03/24 00:59:15;;;;;;;22.87;15.90;;;;;;;;;;511574;29;777;-74
2022/03/24 00:59:30;;;;;;;22.27;15.63;;;;;;;;;;511006;29;1209;-75
2022/03/24 00:59:46;;;;;;;19.43;15.67;;;;;;;;;;511570;29;1252;-75
2022/03/24 01:00:01;;;;;;;20.37;15.63;;;;;;;;;;509061;29;1262;-75
2022/03/24 01:00:20;;;;;;;22.00;15.65;;;;;;;;;;507109;29;695;-75
2022/03/24 01:00:36;;;;;;;21.05;15.30;;;;;;;;;;509585;29;791;-75
2022/03/24 01:00:53;;;;;;;20.40;14.90;;;;;;;;;;511647;29;742;-75
2022/03/24 01:01:12;;;;;;;21.58;15.45;;;;;;;;;;509618;29;1317;-75
2022/03/24 01:01:27;;;;;;;21.15;15.20;;;;;;;;;;509503;29;1540;-75
2022/03/24 01:01:42;;;;;;;21.13;15.00;;;;;;;;;;510615;28;746;-74
2022/03/24 01:01:59;;;;;;;21.20;14.80;;;;;;;;;;511412;29;1158;-75
2022/03/24 01:02:14;;;;;;;22.65;15.32;;;;;;;;;;511897;29;853;-75
2022/03/24 01:02:29;;;;;;;23.17;15.33;;;;;;;;;;512266;28;805;-75
2022/03/24 01:02:48;;;;;;;22.03;15.13;;;;;;;;;;511591;29;1295;-74
2022/03/24 01:03:08;;;;;;;21.23;15.45;;;;;;;;;;512025;29;860;-75
2022/03/24 01:03:23;;;;;;;20.10;15.25;;;;;;;;;;509155;29;1500;-75
2022/03/24 01:03:40;;;;;;;19.60;15.23;;;;;;;;;;507255;29;1260;-75
2022/03/24 01:03:56;;;;;;;20.83;15.60;;;;;;;;;;508400;29;1791;-75
2022/03/24 01:04:12;;;;;;;21.45;15.35;;;;;;;;;;509646;29;750;-75
2022/03/24 01:04:28;;;;;;;20.00;14.98;;;;;;;;;;509176;29;849;-75
2022/03/24 01:04:43;;;;;;;19.58;15.25;;;;;;;;;;507899;29;777;-75
2022/03/24 01:04:58;;;;;;;21.27;15.27;;;;;;;;;;508600;29;897;-75
2022/03/24 01:05:15;;;;;;;21.02;14.65;;;;;;;;;;509200;29;794;-75
2022/03/24 01:05:30;;;;;;;19.85;14.63;;;;;;;;;;511220;28;798;-75
2022/03/24 01:05:47;;;;;;;19.67;15.00;;;;;;;;;;513426;28;904;-75
2022/03/24 01:06:03;;;;;;;19.85;15.27;;;;;;;;;;514121;28;832;-75
2022/03/24 01:06:19;;;;;;;20.55;15.50;;;;;;;;;;513780;28;1268;-75
2022/03/24 01:06:34;;;;;;;19.25;14.82;;;;;;;;;;511040;29;1237;-75
2022/03/24 01:06:50;;;;;;;19.95;14.75;;;;;;;;;;511555;29;861;-75
2022/03/24 01:07:05;;;;;;;22.40;15.00;;;;;;;;;;511467;29;782;-75
2022/03/24 01:07:20;;;;;;;22.53;15.00;;;;;;;;;;511611;29;892;-75
2022/03/24 01:07:36;;;;;;;21.45;15.20;;;;;;;;;;507744;29;1166;-74
2022/03/24 01:07:51;;;;;;;21.07;14.87;;;;;;;;;;507265;29;699;-75
2022/03/24 01:08:08;;;;;;;20.80;14.77;;;;;;;;;;508033;29;1159;-75
2022/03/24 01:08:23;;;;;;;22.77;15.45;;;;;;;;;;510168;29;1374;-75
2022/03/24 01:08:38;;;;;;;21.77;15.37;;;;;;;;;;510899;29;782;-75
2022/03/24 01:08:54;;;;;;;19.50;14.47;;;;;;;;;;510509;29;790;-75
2022/03/24 01:09:09;;;;;;;20.53;14.63;;;;;;;;;;511834;29;964;-75
2022/03/24 01:09:24;;;;;;;19.83;14.97;;;;;;;;;;510257;29;1258;-75
2022/03/24 01:09:39;;;;;;;19.33;14.67;;;;;;;;;;509603;29;1463;-75
2022/03/24 01:09:54;;;;;;;19.95;14.57;;;;;;;;;;507670;29;1072;-75
2022/03/24 01:10:12;;;;;;;21.80;14.97;;;;;;;;;;509407;29;837;-75
2022/03/24 01:10:27;;;;;;;19.90;14.50;;;;;;;;;;507708;29;976;-75
2022/03/24 01:10:42;;;;;;;19.53;14.43;;;;;;;;;;507764;29;1309;-75
2022/03/24 01:10:58;;;;;;;19.80;14.60;;;;;;;;;;507901;29;1194;-75
2022/03/24 01:11:13;;;;;;;20.03;15.07;;;;;;;;;;508194;29;1194;-75
2022/03/24 01:11:28;;;;;;;23.00;15.15;;;;;;;;;;509943;29;945;-75
2022/03/24 01:11:44;;;;;;;23.50;15.00;;;;;;;;;;511397;29;932;-74
2022/03/24 01:12:02;;;;;;;22.63;15.57;;;;;;;;;;510901;29;1199;-75
2022/03/24 01:12:18;;;;;;;20.60;15.50;;;;;;;;;;511606;28;1341;-75
2022/03/24 01:12:34;;;;;;;21.38;15.18;;;;;;;;;;513377;28;797;-75
2022/03/24 01:12:50;;;;;;;22.10;15.00;;;;;;;;;;514315;28;765;-74
2022/03/24 01:13:05;;;;;;;21.42;15.13;;;;;;;;;;513415;28;1197;-75
2022/03/24 01:13:21;;;;;;;19.95;14.93;;;;;;;;;;513197;28;1494;-75
2022/03/24 01:13:38;;;;;;;19.45;15.02;;;;;;;;;;514749;28;1260;-75
2022/03/24 01:13:53;;;;;;;20.42;15.18;;;;;;;;;;513998;28;1236;-75
2022/03/24 01:14:09;;;;;;;21.15;15.15;;;;;;;;;;513140;28;1490;-74
2022/03/24 01:14:25;;;;;;;22.90;15.20;;;;;;;;;;513664;28;1243;-75
2022/03/24 01:14:40;;;;;;;23.42;15.23;;;;;;;;;;513711;28;809;-75
2022/03/24 01:14:58;;;;;;;21.30;15.13;;;;;;;;;;512084;28;1919;-75
2022/03/24 01:15:16;;;;;;;20.92;15.65;;;;;;;;;;513107;28;876;-75
2022/03/24 01:15:31;;;;;;;21.02;15.68;;;;;;;;;;513461;28;1376;-75
2022/03/24 01:15:47;;;;;;;22.50;15.70;;;;;;;;;;513706;28;793;-75
2022/03/24 01:16:03;;;;;;;23.05;15.70;;;;;;;;;;511473;29;1422;-75
2022/03/24 01:16:19;;;;;;;21.05;15.68;;;;;;;;;;511510;29;829;-74
2022/03/24 01:16:35;;;;;;;21.43;15.27;;;;;;;;;;511496;29;1202;-75
2022/03/24 01:16:51;;;;;;;25.63;15.40;;;;;;;;;;512722;28;794;-75
2022/03/24 01:17:10;;;;;;;24.75;15.20;;;;;;;;;;513667;28;995;-75
2022/03/24 01:17:26;;;;;;;21.33;15.25;;;;;;;;;;513619;28;809;-74
2022/03/24 01:17:42;;;;;;;21.48;15.88;;;;;;;;;;511598;28;1390;-75
2022/03/24 01:17:59;;;;;;;22.15;15.98;;;;;;;;;;513023;28;1019;-74
2022/03/24 01:18:16;;;;;;;23.60;15.48;;;;;;;;;;513650;28;856;-75
2022/03/24 01:18:35;;;;;;;24.30;15.80;;;;;;;;;;514056;28;1410;-75
2022/03/24 01:18:51;;;;;;;20.85;15.60;;;;;;;;;;513712;28;884;-75
2022/03/24 01:19:06;;;;;;;21.35;15.55;;;;;;;;;;511611;28;1293;-75
2022/03/24 01:19:22;;;;;;;22.33;15.87;;;;;;;;;;511712;29;853;-75
2022/03/24 01:19:37;;;;;;;21.33;15.38;;;;;;;;;;514858;28;713;-74
2022/03/24 01:19:53;;;;;;;20.47;14.73;;;;;;;;;;515845;28;795;-75
2022/03/24 01:20:10;;;;;;;22.58;15.27;;;;;;;;;;515313;28;762;-74
2022/03/24 01:20:26;;;;;;;23.63;15.65;;;;;;;;;;513451;28;1367;-75
2022/03/24 01:20:41;;;;;;;22.40;15.40;;;;;;;;;;513858;28;889;-75
2022/03/24 01:20:56;;;;;;;20.67;15.43;;;;;;;;;;512526;28;1372;-74
2022/03/24 01:21:16;;;;;;;19.83;15.23;;;;;;;;;;511553;28;1209;-75
2022/03/24 01:21:31;;;;;;;22.77;15.48;;;;;;;;;;511895;29;899;-75
2022/03/24 01:21:47;;;;;;;22.53;15.77;;;;;;;;;;511462;29;738;-75
2022/03/24 01:22:02;;;;;;;20.00;15.77;;;;;;;;;;511401;29;919;-75
2022/03/24 01:22:18;;;;;;;21.40;15.60;;;;;;;;;;511739;28;884;-75
2022/03/24 01:22:33;;;;;;;22.17;15.48;;;;;;;;;;512988;28;920;-75
2022/03/24 01:22:48;;;;;;;22.97;15.63;;;;;;;;;;514486;28;911;-75
2022/03/24 01:23:04;;;;;;;21.55;14.95;;;;;;;;;;513798;28;1319;-75
2022/03/24 01:23:21;;;;;;;19.73;14.77;;;;;;;;;;513864;28;1587;-75
2022/03/24 01:23:36;;;;;;;21.02;15.30;;;;;;;;;;513377;28;1727;-75
2022/03/24 01:23:53;;;;;;;21.40;15.13;;;;;;;;;;511676;29;1204;-75
2022/03/24 01:24:08;;;;;;;20.83;15.00;;;;;;;;;;511547;29;824;-75
2022/03/24 01:24:24;;;;;;;20.20;14.80;;;;;;;;;;511508;29;755;-75
2022/03/24 01:24:39;;;;;;;20.40;14.97;;;;;;;;;;511829;29;1007;-75
2022/03/24 01:24:55;;;;;;;20.90;15.00;;;;;;;;;;512529;28;726;-75
2022/03/24 01:25:11;;;;;;;22.50;14.93;;;;;;;;;;511513;28;1272;-75
2022/03/24 01:25:29;;;;;;;22.75;15.05;;;;;;;;;;512212;28;758;-75
2022/03/24 01:25:44;;;;;;;19.17;14.90;;;;;;;;;;515304;28;924;-74
2022/03/24 01:26:01;;;;;;;20.10;14.80;;;;;;;;;;516348;28;849;-75
2022/03/24 01:26:18;;;;;;;21.73;14.63;;;;;;;;;;516292;28;856;-75
2022/03/24 01:26:35;;;;;;;23.10;14.73;;;;;;;;;;515806;28;762;-75
2022/03/24 01:26:50;;;;;;;21.15;14.35;;;;;;;;;;516170;28;836;-75
2022/03/24 01:27:06;;;;;;;19.23;14.77;;;;;;;;;;515108;28;789;-75
2022/03/24 01:27:25;;;;;;;19.90;15.10;;;;;;;;;;514242;28;997;-75
2022/03/24 01:27:41;;;;;;;20.67;15.02;;;;;;;;;;514271;28;817;-74
2022/03/24 01:27:56;;;;;;;22.00;15.30;;;;;;;;;;514418;28;840;-75
2022/03/24 01:28:13;;;;;;;21.05;15.10;;;;;;;;;;514515;28;986;-75
2022/03/24 01:28:28;;;;;;;21.00;15.45;;;;;;;;;;514073;28;1515;-75
2022/03/24 01:28:44;;;;;;;22.15;15.57;;;;;;;;;;515149;28;793;-75
2022/03/24 01:29:00;;;;;;;20.63;14.83;;;;;;;;;;512883;28;1208;-75
2022/03/24 01:29:15;;;;;;;18.98;14.80;;;;;;;;;;512082;29;817;-75
2022/03/24 01:29:33;;;;;;;20.00;15.13;;;;;;;;;;511251;29;1165;-75
2022/03/24 01:29:49;;;;;;;21.67;15.75;;;;;;;;;;510182;29;1689;-75
2022/03/24 01:30:08;;;;;;;21.90;15.38;;;;;;;;;;510214;29;830;-75
2022/03/24 01:30:24;;;;;;;22.23;15.27;;;;;;;;;;510105;29;1606;-75
2022/03/24 01:30:40;;;;;;;21.48;15.15;;;;;;;;;;511599;29;745;-75
2022/03/24 01:30:55;;;;;;;20.83;14.97;;;;;;;;;;511950;29;1486;-75
2022/03/24 01:31:11;;;;;;;18.98;14.85;;;;;;;;;;511928;29;1183;-75
2022/03/24 01:31:26;;;;;;;21.87;14.60;;;;;;;;;;513548;28;758;-75
2022/03/24 01:31:42;;;;;;;23.50;15.07;;;;;;;;;;514060;28;1209;-75
2022/03/24 01:31:57;;;;;;;21.58;15.38;;;;;;;;;;514066;28;940;-75
2022/03/24 01:32:13;;;;;;;21.23;15.43;;;;;;;;;;514216;28;1166;-75
2022/03/24 01:32:28;;;;;;;20.80;15.50;;;;;;;;;;514024;28;1260;-75
2022/03/24 01:32:45;;;;;;;22.08;15.68;;;;;;;;;;513657;28;825;-75
2022/03/24 01:33:00;;;;;;;22.60;16.08;;;;;;;;;;512509;28;790;-75
2022/03/24 01:33:16;;;;;;;23.63;16.07;;;;;;;;;;512084;28;1248;-75
2022/03/24 01:33:31;;;;;;;21.85;15.38;;;;;;;;;;510901;29;1488;-75
2022/03/24 01:33:47;;;;;;;20.80;15.77;;;;;;;;;;510381;28;1350;-75
2022/03/24 01:34:03;;;;;;;20.85;16.25;;;;;;;;;;510308;29;1253;-75
2022/03/24 01:34:18;;;;;;;20.35;15.43;;;;;;;;;;512751;28;992;-75
2022/03/24 01:34:34;;;;;;;21.73;15.57;;;;;;;;;;512104;29;1205;-75
2022/03/24 01:34:50;;;;;;;22.83;15.85;;;;;;;;;;511650;29;1910;-75
2022/03/24 01:35:07;;;;;;;22.48;15.77;;;;;;;;;;511722;29;1213;-75
2022/03/24 01:35:23;;;;;;;21.60;15.95;;;;;;;;;;511994;29;888;-75
2022/03/24 01:35:38;;;;;;;22.83;16.75;;;;;;;;;;512915;28;995;-75